Time;durP1;ratioP1;P1;durP2;ratioP2;P2;SDS_P1;SDS_P2;PMS_P1;PMS_P2;Temp;Humidity;BMP_temperature;BMP_pressure;BME280_temperature;BME280_humidity;BME280_pressure;Samples;Min_cycle;Max_cycle;Signal;HPM_P1;HPM_P2
2023/12/01 00:01:18;;;;;;;;;;;17.70;99.90;;;;;;5107747;28;19996;-72
2023/12/01 00:03:44;;;;;;;;;;;17.70;99.90;;;;;;5057636;28;19928;-72
2023/12/01 00:06:10;;;;;;;;;;;17.70;99.90;;;;;;5053404;28;20490;-71
2023/12/01 00:08:36;;;;;;;;;;;17.70;99.90;;;;;;5055430;28;19909;-72
2023/12/01 00:11:02;;;;;;;;;;;17.70;99.90;;;;;;5054712;28;19916;-70
2023/12/01 00:13:28;;;;;;;;;;;17.70;99.90;;;;;;5055251;28;19920;-67
2023/12/01 00:15:53;;;;;;;;;;;17.70;99.90;;;;;;5065045;28;19908;-71
2023/12/01 00:18:20;;;;;;;;;;;17.70;99.90;;;;;;5065790;28;19924;-72
2023/12/01 00:20:46;;;;;;;;;;;17.70;99.90;;;;;;5066071;28;20417;-71
2023/12/01 00:23:13;;;;;;;;;;;17.70;99.90;;;;;;5066759;28;20017;-71
2023/12/01 00:25:38;;;;;;;;;;;17.70;99.90;;;;;;5063738;28;19970;-69
2023/12/01 00:28:04;;;;;;;;;;;17.70;99.90;;;;;;5064260;28;19915;-71
2023/12/01 00:30:31;;;;;;;;;;;17.70;99.90;;;;;;5060092;28;19915;-67
2023/12/01 00:32:57;;;;;;;;;;;17.70;99.90;;;;;;5058174;28;19966;-70
2023/12/01 00:35:23;;;;;;;;;;;17.70;99.90;;;;;;5066890;28;19950;-72
2023/12/01 00:37:49;;;;;;;;;;;17.70;99.90;;;;;;5063226;28;19913;-70
2023/12/01 00:40:15;;;;;;;;;;;17.60;99.90;;;;;;5064476;28;19912;-72
2023/12/01 00:42:42;;;;;;;;;;;17.60;99.90;;;;;;5062093;28;20010;-67
2023/12/01 00:45:08;;;;;;;;;;;17.60;99.90;;;;;;5062675;28;20364;-71
2023/12/01 00:47:35;;;;;;;;;;;17.60;99.90;;;;;;5063233;28;19927;-70
2023/12/01 00:50:02;;;;;;;;;;;17.60;99.90;;;;;;5064106;28;20023;-72
2023/12/01 00:52:28;;;;;;;;;;;17.60;99.90;;;;;;5062551;28;20277;-72
2023/12/01 00:54:54;;;;;;;;;;;17.60;99.90;;;;;;5064320;28;19908;-71
2023/12/01 00:57:20;;;;;;;;;;;17.60;99.90;;;;;;5052634;28;19951;-71
2023/12/01 00:59:46;;;;;;;;;;;17.60;99.90;;;;;;5054202;28;20316;-71
2023/12/01 01:02:11;;;;;;;;;;;17.60;99.90;;;;;;5054402;28;19947;-71
2023/12/01 01:04:38;;;;;;;;;;;17.60;99.90;;;;;;5052824;28;19990;-72
2023/12/01 01:07:04;;;;;;;;;;;17.60;99.90;;;;;;5053802;28;20003;-72
2023/12/01 01:09:29;;;;;;;;;;;17.60;99.90;;;;;;5053844;28;20411;-71
2023/12/01 01:11:55;;;;;;;;;;;17.60;99.90;;;;;;5053779;28;19908;-71
2023/12/01 01:14:21;;;;;;;;;;;17.60;99.90;;;;;;5053514;28;20012;-71
2023/12/01 01:16:47;;;;;;;;;;;17.60;99.90;;;;;;5053675;28;19909;-73
2023/12/01 01:19:12;;;;;;;;;;;17.60;99.90;;;;;;5053960;28;19995;-71
2023/12/01 01:21:39;;;;;;;;;;;17.60;99.90;;;;;;5067208;28;19962;-71
2023/12/01 01:24:05;;;;;;;;;;;17.60;99.90;;;;;;5072076;28;20252;-72
2023/12/01 01:26:31;;;;;;;;;;;17.60;99.90;;;;;;5073473;28;20053;-71
2023/12/01 01:28:57;;;;;;;;;;;17.60;99.90;;;;;;5106033;28;20314;-71
2023/12/01 01:31:24;;;;;;;;;;;17.60;99.90;;;;;;5073419;28;19909;-72
2023/12/01 01:33:50;;;;;;;;;;;17.60;99.90;;;;;;5055352;28;19924;-71
2023/12/01 01:36:18;;;;;;;;;;;17.60;99.90;;;;;;5053166;28;19908;-71
2023/12/01 01:38:44;;;;;;;;;;;17.50;99.90;;;;;;5085466;28;20046;-72
2023/12/01 01:41:09;;;;;;;;;;;17.50;99.90;;;;;;5053546;28;19913;-72
2023/12/01 01:43:36;;;;;;;;;;;17.50;99.90;;;;;;5053134;28;19909;-71
2023/12/01 01:46:07;;;;;;;;;;;17.50;99.90;;;;;;5053004;28;19927;-71
2023/12/01 01:48:33;;;;;;;;;;;17.50;99.90;;;;;;5051689;28;19908;-72
2023/12/01 01:51:00;;;;;;;;;;;17.50;99.90;;;;;;5062496;28;19915;-71
2023/12/01 01:53:27;;;;;;;;;;;17.50;99.90;;;;;;5073047;28;20377;-69
2023/12/01 01:55:54;;;;;;;;;;;17.50;99.90;;;;;;5072875;28;19995;-71
2023/12/01 01:58:21;;;;;;;;;;;17.50;99.90;;;;;;5073392;28;20373;-74
2023/12/01 02:00:49;;;;;;;;;;;17.50;99.90;;;;;;5055235;28;19920;-70
2023/12/01 02:03:23;;;;;;;;;;;17.50;99.90;;;;;;5037812;28;19944;-68
2023/12/01 02:05:49;;;;;;;;;;;17.50;99.90;;;;;;5032944;28;20020;-71
2023/12/01 02:08:22;;;;;;;;;;;17.50;99.90;;;;;;5031258;28;19991;-72
2023/12/01 02:10:49;;;;;;;;;;;17.50;99.90;;;;;;5032649;28;19909;-71
2023/12/01 02:13:15;;;;;;;;;;;17.50;99.90;;;;;;5033071;28;19909;-71
2023/12/01 02:15:42;;;;;;;;;;;17.60;99.90;;;;;;5032799;28;19996;-70
2023/12/01 02:18:27;;;;;;;;;;;17.50;99.90;;;;;;5032524;28;20361;-71
2023/12/01 02:20:55;;;;;;;;;;;17.50;99.90;;;;;;5048444;28;20360;-70
2023/12/01 02:23:21;;;;;;;;;;;17.50;99.90;;;;;;5072328;28;19978;-71
2023/12/01 02:25:47;;;;;;;;;;;17.60;99.90;;;;;;5104470;28;20411;-71
2023/12/01 02:28:13;;;;;;;;;;;17.60;99.90;;;;;;5072233;28;19909;-71
2023/12/01 02:30:41;;;;;;;;;;;17.60;99.90;;;;;;5071931;28;19916;-71
2023/12/01 02:33:07;;;;;;;;;;;17.60;99.90;;;;;;5072364;28;20288;-71
2023/12/01 02:35:34;;;;;;;;;;;17.60;99.90;;;;;;5104422;28;19916;-72
2023/12/01 02:38:00;;;;;;;;;;;17.60;99.90;;;;;;5071800;28;19919;-71
2023/12/01 02:40:27;;;;;;;;;;;17.60;99.90;;;;;;5071905;28;19913;-71
2023/12/01 02:42:53;;;;;;;;;;;17.60;99.90;;;;;;5071798;28;20002;-69
2023/12/01 02:45:19;;;;;;;;;;;17.60;99.90;;;;;;5071633;28;19923;-71
2023/12/01 02:47:47;;;;;;;;;;;17.60;99.90;;;;;;5071709;28;20003;-71
2023/12/01 02:50:16;;;;;;;;;;;17.60;99.90;;;;;;5068247;28;19950;-72
2023/12/01 02:52:42;;;;;;;;;;;17.60;99.90;;;;;;5050173;28;19966;-71
2023/12/01 02:55:08;;;;;;;;;;;17.60;99.90;;;;;;5051588;28;19909;-71
2023/12/01 02:57:37;;;;;;;;;;;17.50;99.90;;;;;;5051434;28;19909;-72
2023/12/01 03:00:08;;;;;;;;;;;17.50;99.90;;;;;;5035649;28;19913;-71
2023/12/01 03:02:34;;;;;;;;;;;17.60;99.90;;;;;;5062383;28;19920;-71
2023/12/01 03:05:00;;;;;;;;;;;17.60;99.90;;;;;;5031471;28;20016;-71
2023/12/01 03:07:26;;;;;;;;;;;17.60;99.90;;;;;;5031325;28;20419;-70
2023/12/01 03:09:52;;;;;;;;;;;17.60;99.90;;;;;;5031395;28;20222;-71
2023/12/01 03:12:17;;;;;;;;;;;17.60;99.90;;;;;;5031410;28;19909;-71
2023/12/01 03:14:43;;;;;;;;;;;17.60;99.90;;;;;;5031209;28;19910;-71
2023/12/01 03:17:09;;;;;;;;;;;17.60;99.90;;;;;;5031201;28;19984;-71
2023/12/01 03:19:35;;;;;;;;;;;17.70;99.90;;;;;;5031575;28;19909;-71
2023/12/01 03:22:01;;;;;;;;;;;17.70;99.90;;;;;;5062820;28;20031;-71
2023/12/01 03:24:27;;;;;;;;;;;17.60;99.90;;;;;;5031235;28;19916;-70
2023/12/01 03:26:52;;;;;;;;;;;17.70;99.90;;;;;;5029924;28;19955;-69
2023/12/01 03:29:19;;;;;;;;;;;17.70;99.90;;;;;;5031136;28;20016;-71
2023/12/01 03:31:44;;;;;;;;;;;17.60;99.90;;;;;;5031526;28;19909;-71
2023/12/01 03:34:10;;;;;;;;;;;17.70;99.90;;;;;;5031480;28;20012;-70
2023/12/01 03:36:36;;;;;;;;;;;17.70;99.90;;;;;;5031002;28;19999;-71
2023/12/01 03:39:02;;;;;;;;;;;17.70;99.90;;;;;;5031165;28;19985;-70
2023/12/01 03:41:28;;;;;;;;;;;17.70;99.90;;;;;;5029687;28;20300;-69
2023/12/01 03:43:53;;;;;;;;;;;17.70;99.90;;;;;;5031485;28;20004;-71
2023/12/01 03:46:19;;;;;;;;;;;17.70;99.90;;;;;;5029487;28;19917;-71
2023/12/01 03:48:45;;;;;;;;;;;17.70;99.90;;;;;;5031203;28;20302;-71
2023/12/01 03:51:11;;;;;;;;;;;17.70;99.90;;;;;;5031091;28;20379;-71
2023/12/01 03:53:37;;;;;;;;;;;17.70;99.90;;;;;;5031420;28;19928;-70
2023/12/01 03:56:03;;;;;;;;;;;17.70;99.90;;;;;;5031257;28;20019;-71
2023/12/01 03:58:29;;;;;;;;;;;17.70;99.90;;;;;;5062879;28;20092;-71
2023/12/01 04:00:55;;;;;;;;;;;17.70;99.90;;;;;;5031407;28;20010;-71
2023/12/01 04:03:24;;;;;;;;;;;17.70;99.90;;;;;;5030822;28;19925;-70
2023/12/01 04:05:52;;;;;;;;;;;17.70;99.90;;;;;;5031135;28;19917;-71
2023/12/01 04:08:18;;;;;;;;;;;17.70;99.90;;;;;;5029934;28;20021;-71
2023/12/01 04:10:44;;;;;;;;;;;17.80;99.90;;;;;;5031805;28;19945;-70
2023/12/01 04:13:12;;;;;;;;;;;17.70;99.90;;;;;;5031223;28;19913;-72
2023/12/01 04:15:39;;;;;;;;;;;17.70;99.90;;;;;;5031364;28;20311;-72
2023/12/01 04:18:08;;;;;;;;;;;17.70;99.90;;;;;;5029963;28;19910;-72
2023/12/01 04:20:38;;;;;;;;;;;17.70;99.90;;;;;;5043820;28;19955;-72
2023/12/01 04:23:09;;;;;;;;;;;17.70;99.90;;;;;;5071258;28;19999;-71
2023/12/01 04:25:38;;;;;;;;;;;17.70;99.90;;;;;;5071099;28;19920;-71
2023/12/01 04:28:04;;;;;;;;;;;17.70;99.90;;;;;;5071440;28;19909;-72
2023/12/01 04:30:30;;;;;;;;;;;17.70;99.90;;;;;;5071056;28;19919;-71
2023/12/01 04:32:57;;;;;;;;;;;17.70;99.90;;;;;;5060708;28;19908;-71
2023/12/01 04:35:24;;;;;;;;;;;17.70;99.90;;;;;;5050874;28;20118;-71
2023/12/01 04:37:51;;;;;;;;;;;17.70;99.90;;;;;;5051408;28;20276;-70
2023/12/01 04:40:17;;;;;;;;;;;17.60;99.90;;;;;;5051803;28;19910;-69
2023/12/01 04:42:46;;;;;;;;;;;17.60;99.90;;;;;;5054517;28;20211;-71
2023/12/01 04:45:13;;;;;;;;;;;17.60;99.90;;;;;;5054611;28;19956;-71
2023/12/01 04:47:40;;;;;;;;;;;17.70;99.90;;;;;;5053038;28;20280;-71
2023/12/01 04:50:12;;;;;;;;;;;17.60;99.90;;;;;;5056952;28;20353;-71
2023/12/01 04:52:39;;;;;;;;;;;17.60;99.90;;;;;;5072854;28;19916;-70
2023/12/01 04:55:06;;;;;;;;;;;17.60;99.90;;;;;;5074480;28;19947;-71
2023/12/01 04:57:33;;;;;;;;;;;17.60;99.90;;;;;;5074472;28;19917;-71
2023/12/01 04:59:58;;;;;;;;;;;17.60;99.90;;;;;;5074203;28;20356;-72
2023/12/01 05:02:24;;;;;;;;;;;17.60;99.90;;;;;;5068178;28;19908;-71
2023/12/01 05:04:50;;;;;;;;;;;17.60;99.90;;;;;;5054113;28;19968;-70
2023/12/01 05:07:16;;;;;;;;;;;17.60;99.90;;;;;;5054153;28;20515;-71
2023/12/01 05:09:42;;;;;;;;;;;17.50;99.90;;;;;;5055946;28;20003;-74
2023/12/01 05:12:08;;;;;;;;;;;17.60;99.90;;;;;;5074221;28;20056;-71
2023/12/01 05:14:33;;;;;;;;;;;17.60;99.90;;;;;;5074450;28;19919;-71
2023/12/01 05:17:01;;;;;;;;;;;17.60;99.90;;;;;;5074245;28;19954;-71
2023/12/01 05:19:28;;;;;;;;;;;17.60;99.90;;;;;;5074504;28;20007;-71
2023/12/01 05:21:54;;;;;;;;;;;17.60;99.90;;;;;;5074264;28;19909;-71
2023/12/01 05:24:20;;;;;;;;;;;17.70;99.90;;;;;;5074297;28;20338;-72
2023/12/01 05:26:45;;;;;;;;;;;17.70;99.90;;;;;;5074288;28;19914;-74
2023/12/01 05:29:13;;;;;;;;;;;17.80;99.90;;;;;;5106814;28;19908;-72
2023/12/01 05:31:39;;;;;;;;;;;17.80;99.90;;;;;;5072767;28;19912;-71
2023/12/01 05:34:05;;;;;;;;;;;17.80;99.90;;;;;;5055110;28;20420;-72
2023/12/01 05:36:31;;;;;;;;;;;17.70;99.90;;;;;;5063430;28;19966;-73
2023/12/01 05:38:59;;;;;;;;;;;17.80;99.90;;;;;;5057522;28;19957;-68
2023/12/01 05:41:25;;;;;;;;;;;17.70;99.90;;;;;;5046986;28;19940;-70
2023/12/01 05:43:51;;;;;;;;;;;17.70;99.90;;;;;;5032493;28;20350;-72
2023/12/01 05:46:17;;;;;;;;;;;17.70;99.90;;;;;;5033856;28;19972;-72
2023/12/01 05:48:43;;;;;;;;;;;17.80;99.90;;;;;;5033920;28;19909;-73
2023/12/01 05:51:09;;;;;;;;;;;17.80;99.90;;;;;;5033561;28;19928;-73
2023/12/01 05:53:35;;;;;;;;;;;17.90;99.90;;;;;;5033632;28;19909;-73
2023/12/01 05:56:01;;;;;;;;;;;17.90;99.90;;;;;;5031935;28;20037;-72
2023/12/01 05:58:28;;;;;;;;;;;17.90;99.90;;;;;;5033582;28;20429;-72
2023/12/01 06:00:54;;;;;;;;;;;17.90;99.90;;;;;;5033648;28;19917;-72
2023/12/01 06:03:20;;;;;;;;;;;17.90;99.90;;;;;;5033705;28;20344;-73
2023/12/01 06:05:46;;;;;;;;;;;18.00;99.90;;;;;;5033728;28;19929;-72
2023/12/01 06:08:14;;;;;;;;;;;17.90;99.90;;;;;;5033505;28;19932;-72
2023/12/01 06:10:40;;;;;;;;;;;17.90;99.90;;;;;;5033536;28;20269;-73
2023/12/01 06:13:06;;;;;;;;;;;17.90;99.90;;;;;;5033848;28;19909;-68
2023/12/01 06:15:32;;;;;;;;;;;17.90;99.90;;;;;;5033481;28;20023;-72
2023/12/01 06:17:58;;;;;;;;;;;18.00;99.90;;;;;;5033628;28;19944;-73
2023/12/01 06:20:24;;;;;;;;;;;18.00;99.90;;;;;;5031898;28;19909;-73
2023/12/01 06:22:51;;;;;;;;;;;18.20;99.90;;;;;;5032979;28;20524;-73
2023/12/01 06:25:26;;;;;;;;;;;18.20;99.90;;;;;;5032988;28;19960;-73
2023/12/01 06:27:56;;;;;;;;;;;18.40;99.90;;;;;;5032555;28;19999;-70
2023/12/01 06:30:23;;;;;;;;;;;18.60;99.90;;;;;;5031006;28;19909;-68
2023/12/01 06:32:50;;;;;;;;;;;18.80;99.90;;;;;;5041847;28;19915;-71
2023/12/01 06:35:16;;;;;;;;;;;18.90;99.90;;;;;;5052553;28;19932;-70
2023/12/01 06:37:43;;;;;;;;;;;19.00;99.90;;;;;;5052703;28;20349;-70
2023/12/01 06:40:13;;;;;;;;;;;19.30;99.90;;;;;;5052773;28;19923;-70
2023/12/01 06:42:39;;;;;;;;;;;19.40;99.90;;;;;;5051289;28;19909;-70
2023/12/01 06:45:06;;;;;;;;;;;19.60;99.90;;;;;;5052308;28;19990;-71
2023/12/01 06:47:32;;;;;;;;;;;19.80;99.90;;;;;;5051808;28;19909;-71
2023/12/01 06:49:58;;;;;;;;;;;20.00;99.90;;;;;;5053288;28;20333;-71
2023/12/01 06:52:24;;;;;;;;;;;20.00;99.90;;;;;;5071660;28;19914;-71
2023/12/01 06:54:56;;;;;;;;;;;20.10;99.90;;;;;;5065717;28;19909;-66
2023/12/01 06:57:23;;;;;;;;;;;20.40;99.90;;;;;;5035289;28;20402;-65
2023/12/01 06:59:49;;;;;;;;;;;20.50;99.90;;;;;;5040384;28;20004;-70
2023/12/01 07:02:17;;;;;;;;;;;20.60;99.90;;;;;;5046269;28;19944;-70
2023/12/01 07:04:44;;;;;;;;;;;20.50;99.90;;;;;;5031075;28;19983;-65
2023/12/01 07:07:12;;;;;;;;;;;20.70;99.90;;;;;;5032315;28;20341;-71
2023/12/01 07:09:43;;;;;;;;;;;20.90;99.90;;;;;;5031867;28;19916;-69
2023/12/01 07:12:09;;;;;;;;;;;21.30;99.90;;;;;;5031155;28;19909;-68
2023/12/01 07:14:36;;;;;;;;;;;21.60;99.90;;;;;;5030478;28;20009;-68
2023/12/01 07:17:05;;;;;;;;;;;21.90;99.90;;;;;;5031634;28;19913;-69
2023/12/01 07:19:34;;;;;;;;;;;22.00;99.90;;;;;;5032142;28;19920;-69
2023/12/01 07:22:01;;;;;;;;;;;22.30;99.90;;;;;;5068133;28;19919;-69
2023/12/01 07:24:26;;;;;;;;;;;22.70;99.90;;;;;;5071801;28;20003;-70
2023/12/01 07:26:52;;;;;;;;;;;22.90;99.90;;;;;;5072272;28;20000;-70
2023/12/01 07:29:18;;;;;;;;;;;23.00;99.90;;;;;;5072041;28;20333;-71
2023/12/01 07:31:44;;;;;;;;;;;23.30;99.90;;;;;;5071819;28;19915;-69
2023/12/01 07:34:11;;;;;;;;;;;23.30;99.90;;;;;;5051621;28;19952;-70
2023/12/01 07:36:40;;;;;;;;;;;23.20;99.90;;;;;;5051537;28;19913;-70
2023/12/01 07:39:06;;;;;;;;;;;23.10;99.90;;;;;;5051583;28;19959;-69
2023/12/01 07:41:32;;;;;;;;;;;23.10;99.90;;;;;;5050824;28;19909;-69
2023/12/01 07:43:58;;;;;;;;;;;23.00;99.90;;;;;;5051549;28;19917;-71
2023/12/01 07:46:24;;;;;;;;;;;22.80;99.90;;;;;;5051245;28;20319;-68
2023/12/01 07:48:50;;;;;;;;;;;22.30;99.90;;;;;;5051238;28;19908;-69
2023/12/01 07:51:16;;;;;;;;;;;22.00;99.90;;;;;;5063268;28;19931;-68
2023/12/01 07:53:46;;;;;;;;;;;21.90;99.90;;;;;;5069927;28;19970;-68
2023/12/01 07:56:22;;;;;;;;;;;21.60;99.90;;;;;;5072010;28;19917;-67
2023/12/01 07:58:49;;;;;;;;;;;21.40;99.90;;;;;;5071034;28;19916;-70
2023/12/01 08:01:15;;;;;;;;;;;21.30;99.90;;;;;;5071961;28;19931;-67
2023/12/01 08:03:43;;;;;;;;;;;21.10;99.90;;;;;;5054600;28;20403;-69
2023/12/01 08:06:09;;;;;;;;;;;21.20;99.90;;;;;;5049589;28;19916;-69
2023/12/01 08:08:35;;;;;;;;;;;21.20;99.90;;;;;;5051273;28;19941;-70
2023/12/01 08:11:04;;;;;;;;;;;21.20;99.90;;;;;;5051303;28;19960;-69
2023/12/01 08:13:30;;;;;;;;;;;21.30;99.90;;;;;;5051213;28;20265;-70
2023/12/01 08:15:55;;;;;;;;;;;21.30;99.90;;;;;;5055641;28;20328;-69
2023/12/01 08:18:21;;;;;;;;;;;21.40;99.90;;;;;;5055011;28;19912;-69
2023/12/01 08:20:47;;;;;;;;;;;21.50;99.90;;;;;;5063124;28;19912;-69
2023/12/01 08:23:13;;;;;;;;;;;21.60;99.90;;;;;;5074786;28;20376;-70
2023/12/01 08:25:40;;;;;;;;;;;21.60;99.90;;;;;;5074919;28;19921;-70
2023/12/01 08:28:05;;;;;;;;;;;21.80;99.90;;;;;;5061129;28;20352;-69
2023/12/01 08:30:31;;;;;;;;;;;21.80;99.90;;;;;;5034712;28;19999;-71
2023/12/01 08:32:58;;;;;;;;;;;21.90;99.90;;;;;;5048622;28;20288;-71
2023/12/01 08:35:24;;;;;;;;;;;22.00;99.90;;;;;;5049337;28;20274;-70
2023/12/01 08:37:51;;;;;;;;;;;22.10;99.90;;;;;;5042637;28;19909;-69
2023/12/01 08:40:16;;;;;;;;;;;22.00;99.90;;;;;;5034273;28;19924;-68
2023/12/01 08:42:42;;;;;;;;;;;22.00;99.90;;;;;;5049859;28;19970;-69
2023/12/01 08:45:09;;;;;;;;;;;21.90;99.90;;;;;;5052912;28;19917;-70
2023/12/01 08:47:35;;;;;;;;;;;21.60;99.90;;;;;;5053811;28;19909;-69
2023/12/01 08:50:01;;;;;;;;;;;21.50;99.90;;;;;;5054736;28;19995;-69
2023/12/01 08:52:29;;;;;;;;;;;21.40;99.90;;;;;;5074560;28;19908;-70
2023/12/01 08:54:58;;;;;;;;;;;21.20;99.90;;;;;;5074886;28;19947;-70
2023/12/01 08:57:25;;;;;;;;;;;21.30;99.90;;;;;;5073132;28;19908;-68
2023/12/01 08:59:52;;;;;;;;;;;21.40;99.90;;;;;;5074330;28;19931;-71
2023/12/01 09:02:17;;;;;;;;;;;21.50;99.90;;;;;;5068941;28;19909;-68
2023/12/01 09:04:43;;;;;;;;;;;21.50;99.90;;;;;;5053943;28;19920;-69
2023/12/01 09:07:10;;;;;;;;;;;21.50;99.90;;;;;;5052370;28;20023;-70
2023/12/01 09:09:38;;;;;;;;;;;21.60;99.90;;;;;;5053144;28;19916;-70
2023/12/01 09:12:04;;;;;;;;;;;21.70;99.90;;;;;;5052476;28;19919;-69
2023/12/01 09:14:32;;;;;;;;;;;21.50;99.90;;;;;;5054035;28;19917;-70
2023/12/01 09:16:58;;;;;;;;;;;21.50;99.90;;;;;;5052345;28;19909;-70
2023/12/01 09:19:25;;;;;;;;;;;21.40;99.90;;;;;;5054655;28;19919;-69
2023/12/01 09:21:50;;;;;;;;;;;21.40;99.90;;;;;;5071661;28;19909;-71
2023/12/01 09:24:16;;;;;;;;;;;21.30;99.90;;;;;;5074229;28;19908;-69
2023/12/01 09:26:42;;;;;;;;;;;21.40;99.90;;;;;;5073326;28;20284;-68
2023/12/01 09:29:08;;;;;;;;;;;21.30;99.90;;;;;;5074159;28;19963;-69
2023/12/01 09:31:43;;;;;;;;;;;21.30;99.90;;;;;;5074087;28;19908;-69
2023/12/01 09:34:09;;;;;;;;;;;21.20;99.90;;;;;;5034157;28;19916;-69
2023/12/01 09:36:35;;;;;;;;;;;21.20;99.90;;;;;;5033823;28;19993;-70
2023/12/01 09:39:01;;;;;;;;;;;21.40;99.90;;;;;;5034246;28;19913;-68
2023/12/01 09:41:26;;;;;;;;;;;21.50;99.90;;;;;;5034075;28;19951;-69
2023/12/01 09:43:54;;;;;;;;;;;21.40;99.90;;;;;;5034192;28;19931;-68
2023/12/01 09:46:21;;;;;;;;;;;21.40;99.90;;;;;;5033902;28;20388;-69
2023/12/01 09:48:48;;;;;;;;;;;21.50;99.90;;;;;;5034346;28;19916;-70
2023/12/01 09:51:14;;;;;;;;;;;21.70;99.90;;;;;;5057230;28;20330;-69
2023/12/01 09:53:40;;;;;;;;;;;21.80;99.90;;;;;;5106084;28;19908;-70
2023/12/01 09:56:06;;;;;;;;;;;21.60;99.90;;;;;;5073874;28;20360;-71
2023/12/01 09:58:32;;;;;;;;;;;21.50;99.90;;;;;;5074114;28;19913;-68
2023/12/01 10:01:00;;;;;;;;;;;21.40;99.90;;;;;;5073409;28;19992;-69
2023/12/01 10:03:27;;;;;;;;;;;21.40;99.90;;;;;;5058999;28;19923;-69
2023/12/01 10:05:58;;;;;;;;;;;21.50;99.90;;;;;;5053397;28;19957;-69
2023/12/01 10:08:25;;;;;;;;;;;21.60;99.90;;;;;;5051703;28;19963;-69
2023/12/01 10:10:51;;;;;;;;;;;21.70;99.90;;;;;;5050795;28;19913;-68
2023/12/01 10:13:16;;;;;;;;;;;21.70;99.90;;;;;;5047062;28;20382;-70
2023/12/01 10:15:43;;;;;;;;;;;21.80;99.90;;;;;;5040491;28;20249;-69
2023/12/01 10:18:16;;;;;;;;;;;21.60;99.90;;;;;;5033453;28;19909;-69
2023/12/01 10:21:07;;;;;;;;;;;21.60;99.90;;;;;;5047923;28;20373;-70
2023/12/01 10:23:36;;;;;;;;;;;21.50;99.90;;;;;;5055142;28;19931;-70
2023/12/01 10:26:07;;;;;;;;;;;21.50;99.90;;;;;;5052702;28;20019;-69
2023/12/01 10:28:38;;;;;;;;;;;21.40;99.90;;;;;;5052970;28;19915;-70
2023/12/01 10:31:04;;;;;;;;;;;21.30;99.90;;;;;;5052815;28;20273;-69
2023/12/01 10:33:31;;;;;;;;;;;21.30;99.90;;;;;;5038214;28;19909;-68
2023/12/01 10:35:57;;;;;;;;;;;21.30;99.90;;;;;;5032863;28;19920;-69
2023/12/01 10:38:25;;;;;;;;;;;21.20;99.90;;;;;;5032814;28;20276;-68
2023/12/01 10:40:51;;;;;;;;;;;21.30;99.90;;;;;;5045646;28;19908;-69
2023/12/01 10:43:18;;;;;;;;;;;21.40;99.90;;;;;;5048892;28;19913;-69
2023/12/01 10:45:44;;;;;;;;;;;21.40;99.90;;;;;;5046341;28;20020;-69
2023/12/01 10:48:10;;;;;;;;;;;21.50;99.90;;;;;;5052597;28;19909;-69
2023/12/01 10:50:36;;;;;;;;;;;21.60;99.90;;;;;;5052731;28;19921;-66
2023/12/01 10:53:03;;;;;;;;;;;21.80;99.90;;;;;;5052403;28;19913;-69
2023/12/01 10:55:29;;;;;;;;;;;22.10;99.90;;;;;;5052929;28;19960;-69
2023/12/01 10:57:56;;;;;;;;;;;22.30;99.90;;;;;;5052389;28;19909;-69
2023/12/01 11:00:31;;;;;;;;;;;22.40;99.90;;;;;;5052073;28;19970;-68
2023/12/01 11:03:03;;;;;;;;;;;22.50;99.90;;;;;;5041391;28;20266;-69
2023/12/01 11:05:31;;;;;;;;;;;22.50;99.90;;;;;;5032085;28;19968;-70
2023/12/01 11:08:18;;;;;;;;;;;22.50;99.90;;;;;;5031307;28;20348;-69
2023/12/01 11:10:46;;;;;;;;;;;22.50;99.90;;;;;;5032725;28;19909;-66
2023/12/01 11:13:14;;;;;;;;;;;22.60;99.90;;;;;;5031672;28;19937;-70
2023/12/01 11:15:41;;;;;;;;;;;22.60;99.90;;;;;;5031832;28;19909;-69
2023/12/01 11:18:08;;;;;;;;;;;22.60;99.90;;;;;;5030831;28;20004;-69
2023/12/01 11:20:52;;;;;;;;;;;22.80;99.90;;;;;;5044263;28;19991;-71
2023/12/01 11:23:18;;;;;;;;;;;22.70;99.90;;;;;;5071887;28;19991;-68
2023/12/01 11:25:48;;;;;;;;;;;22.70;99.90;;;;;;5104372;28;20066;-67
2023/12/01 11:28:42;;;;;;;;;;;22.90;99.90;;;;;;5072126;28;20299;-67
2023/12/01 11:34:02;;;;;;;;;;;22.40;99.90;;;;;;5052851;28;19909;-68
2023/12/01 11:36:35;;;;;;;;;;;22.40;99.90;;;;;;5051514;28;19975;-68
2023/12/01 11:41:42;;;;;;;;;;;22.40;99.90;;;;;;5051851;28;19913;-68
2023/12/01 11:44:16;;;;;;;;;;;22.30;99.90;;;;;;5052206;28;19908;-67
2023/12/01 11:46:43;;;;;;;;;;;22.30;99.90;;;;;;5051673;28;19936;-68
2023/12/01 11:49:14;;;;;;;;;;;22.30;99.90;;;;;;5050778;28;19909;-68
2023/12/01 11:51:43;;;;;;;;;;;22.40;99.90;;;;;;5069106;28;19909;-69
2023/12/01 11:54:09;;;;;;;;;;;22.50;99.90;;;;;;5075205;28;19956;-72
2023/12/01 11:56:38;;;;;;;;;;;22.50;99.90;;;;;;5075523;28;19913;-69
2023/12/01 11:59:08;;;;;;;;;;;22.40;99.90;;;;;;5107173;28;19966;-69
2023/12/01 12:01:34;;;;;;;;;;;22.40;99.90;;;;;;5074810;28;19912;-67
2023/12/01 12:03:59;;;;;;;;;;;22.50;99.90;;;;;;5055568;28;19921;-67
2023/12/01 12:06:25;;;;;;;;;;;22.50;99.90;;;;;;5053828;28;19947;-68
2023/12/01 12:08:52;;;;;;;;;;;22.50;99.90;;;;;;5055571;28;20365;-67
2023/12/01 12:11:20;;;;;;;;;;;22.50;99.90;;;;;;5055192;28;19909;-69
2023/12/01 12:13:56;;;;;;;;;;;22.50;99.90;;;;;;5055083;28;19999;-69
2023/12/01 12:16:23;;;;;;;;;;;22.50;99.90;;;;;;5055397;28;20011;-69
2023/12/01 12:18:49;;;;;;;;;;;22.40;99.90;;;;;;5053205;28;20003;-69
2023/12/01 12:21:15;;;;;;;;;;;22.20;99.90;;;;;;5047176;28;20387;-69
2023/12/01 12:23:41;;;;;;;;;;;22.10;99.90;;;;;;5046827;28;21042;-68
2023/12/01 12:26:21;;;;;;;;;;;21.90;99.90;;;;;;5054704;28;19943;-69
2023/12/01 12:28:53;;;;;;;;;;;22.00;99.90;;;;;;5042838;28;19921;-68
2023/12/01 12:31:19;;;;;;;;;;;21.80;99.90;;;;;;5035090;28;20375;-68
2023/12/01 12:33:47;;;;;;;;;;;21.80;99.90;;;;;;5034494;28;19910;-68
2023/12/01 12:36:13;;;;;;;;;;;21.90;99.90;;;;;;5034563;28;19909;-68
2023/12/01 12:38:40;;;;;;;;;;;22.00;99.90;;;;;;5048448;28;20369;-68
2023/12/01 12:41:26;;;;;;;;;;;22.00;99.90;;;;;;5053091;28;19916;-68
2023/12/01 12:43:52;;;;;;;;;;;21.70;99.90;;;;;;5047230;28;19916;-67
2023/12/01 12:46:19;;;;;;;;;;;21.60;99.90;;;;;;5054882;28;19931;-68
2023/12/01 12:48:46;;;;;;;;;;;21.70;99.90;;;;;;5054592;28;20043;-71
2023/12/01 12:51:18;;;;;;;;;;;21.70;99.90;;;;;;5066251;28;19909;-73
2023/12/01 12:53:45;;;;;;;;;;;21.70;99.90;;;;;;5074896;28;19950;-69
2023/12/01 12:56:14;;;;;;;;;;;21.90;99.90;;;;;;5073471;28;19920;-68
2023/12/01 12:58:46;;;;;;;;;;;21.90;99.90;;;;;;5054012;28;20007;-68
2023/12/01 13:01:15;;;;;;;;;;;22.00;99.90;;;;;;5051260;28;19912;-69
2023/12/01 13:03:41;;;;;;;;;;;22.00;99.90;;;;;;5037319;28;20026;-69
2023/12/01 13:06:08;;;;;;;;;;;21.80;99.90;;;;;;5034394;28;20326;-68
2023/12/01 13:08:35;;;;;;;;;;;21.70;99.90;;;;;;5065886;28;19914;-68
2023/12/01 13:11:01;;;;;;;;;;;21.50;99.90;;;;;;5034490;28;19955;-68
2023/12/01 13:13:28;;;;;;;;;;;21.30;99.90;;;;;;5032966;28;20396;-68
2023/12/01 13:15:54;;;;;;;;;;;21.00;99.90;;;;;;5034212;28;19909;-68
2023/12/01 13:18:21;;;;;;;;;;;21.00;99.90;;;;;;5032788;28;19924;-68
2023/12/01 13:20:47;;;;;;;;;;;21.00;99.90;;;;;;5040745;28;19913;-70
2023/12/01 13:23:14;;;;;;;;;;;21.00;99.90;;;;;;5052783;28;19909;-68
2023/12/01 13:25:42;;;;;;;;;;;20.80;99.90;;;;;;5054135;28;19924;-69
2023/12/01 13:28:12;;;;;;;;;;;20.80;99.90;;;;;;5054167;28;20037;-68
2023/12/01 13:30:39;;;;;;;;;;;20.60;99.90;;;;;;5052674;28;19909;-69
2023/12/01 13:33:08;;;;;;;;;;;20.60;99.90;;;;;;5054132;28;19916;-68
2023/12/01 13:35:36;;;;;;;;;;;20.60;99.90;;;;;;5054004;28;19916;-68
2023/12/01 13:38:05;;;;;;;;;;;20.70;99.90;;;;;;5052599;28;19984;-68
2023/12/01 13:40:31;;;;;;;;;;;20.50;99.90;;;;;;5052707;28;19909;-68
2023/12/01 13:42:57;;;;;;;;;;;20.50;99.90;;;;;;5054007;28;20008;-69
2023/12/01 13:45:26;;;;;;;;;;;20.40;99.90;;;;;;5053989;28;19921;-67
2023/12/01 13:47:52;;;;;;;;;;;20.30;99.90;;;;;;5054053;28;19923;-69
2023/12/01 13:50:21;;;;;;;;;;;20.40;99.90;;;;;;5058064;28;19908;-68
2023/12/01 13:52:47;;;;;;;;;;;20.40;99.90;;;;;;5073777;28;19916;-69
2023/12/01 13:55:13;;;;;;;;;;;20.30;99.90;;;;;;5073659;28;19970;-68
2023/12/01 13:57:39;;;;;;;;;;;20.30;99.90;;;;;;5073451;28;19936;-69
2023/12/01 14:00:07;;;;;;;;;;;20.30;99.90;;;;;;5073787;28;19954;-69
2023/12/01 14:02:33;;;;;;;;;;;20.40;99.90;;;;;;5073047;28;19944;-69
2023/12/01 14:04:59;;;;;;;;;;;20.40;99.90;;;;;;5073156;28;19960;-67
2023/12/01 14:07:25;;;;;;;;;;;20.30;99.90;;;;;;5073186;28;19913;-68
2023/12/01 14:09:51;;;;;;;;;;;20.40;99.90;;;;;;5072960;28;19909;-65
2023/12/01 14:12:17;;;;;;;;;;;20.40;99.90;;;;;;5072846;28;19916;-68
2023/12/01 14:14:43;;;;;;;;;;;20.50;99.90;;;;;;5073180;28;20007;-67
2023/12/01 14:17:10;;;;;;;;;;;20.40;99.90;;;;;;5073227;28;19908;-68
2023/12/01 14:19:37;;;;;;;;;;;20.30;99.90;;;;;;5073317;28;20015;-68
2023/12/01 14:22:04;;;;;;;;;;;20.20;99.90;;;;;;5054784;28;19974;-68